Time;durP1;ratioP1;P1;durP2;ratioP2;P2;SDS_P1;SDS_P2;PMS_P1;PMS_P2;Temp;Humidity;BMP_temperature;BMP_pressure;BME280_temperature;BME280_humidity;BME280_pressure;Samples;Min_cycle;Max_cycle;Signal;HPM_P1;HPM_P2
2022/05/13 00:01:10;;;;;;;5.22;2.20;;;12.10;99.90;;;;;;5093389;28;20039;-78
2022/05/13 00:03:37;;;;;;;8.27;2.30;;;12.10;99.90;;;;;;5127145;28;20114;-80
2022/05/13 00:06:03;;;;;;;5.75;2.22;;;12.10;99.90;;;;;;5092814;28;20054;-79
2022/05/13 00:08:29;;;;;;;8.65;2.40;;;12.10;99.90;;;;;;5082544;28;20035;-79
2022/05/13 00:10:55;;;;;;;6.55;2.45;;;12.10;99.90;;;;;;5110809;28;20035;-78
2022/05/13 00:13:21;;;;;;;7.05;2.10;;;12.00;99.90;;;;;;5093618;28;20129;-79
2022/05/13 00:15:48;;;;;;;7.82;2.53;;;12.10;99.90;;;;;;5110218;28;20045;-79
2022/05/13 00:18:15;;;;;;;6.55;1.90;;;12.00;99.90;;;;;;5093282;28;20060;-79
2022/05/13 00:20:40;;;;;;;7.18;2.47;;;12.00;99.90;;;;;;5073553;27;20636;-79
2022/05/13 00:23:06;;;;;;;5.90;1.92;;;12.00;99.90;;;;;;5097480;27;20088;-79
2022/05/13 00:25:35;;;;;;;7.53;2.30;;;12.00;99.90;;;;;;5094853;27;20046;-79
2022/05/13 00:28:04;;;;;;;4.78;1.90;;;12.00;99.90;;;;;;5113922;27;20486;-79
2022/05/13 00:30:33;;;;;;;5.20;1.92;;;11.90;99.90;;;;;;5114055;27;20122;-79
2022/05/13 00:33:00;;;;;;;6.97;2.28;;;11.90;99.90;;;;;;5096651;27;20058;-79
2022/05/13 00:35:28;;;;;;;6.63;2.22;;;11.80;99.90;;;;;;5063867;27;20135;-78
2022/05/13 00:37:54;;;;;;;4.68;1.92;;;11.80;99.90;;;;;;5079092;27;20125;-78
2022/05/13 00:40:21;;;;;;;4.85;2.15;;;11.80;99.90;;;;;;5114311;27;20037;-78
2022/05/13 00:42:49;;;;;;;7.43;2.30;;;11.80;99.90;;;;;;5097040;27;20043;-79
2022/05/13 00:45:15;;;;;;;7.95;2.15;;;12.00;99.90;;;;;;5112128;27;20046;-78
2022/05/13 00:47:41;;;;;;;6.55;1.98;;;11.70;99.90;;;;;;5096789;27;20036;-78
2022/05/13 00:50:09;;;;;;;5.25;2.20;;;11.80;99.90;;;;;;5111511;27;20065;-78
2022/05/13 00:52:36;;;;;;;11.85;2.35;;;11.70;99.90;;;;;;5097094;27;20078;-78
2022/05/13 00:55:09;;;;;;;7.63;2.10;;;11.70;99.90;;;;;;5096394;27;20505;-79
2022/05/13 00:57:36;;;;;;;6.78;2.40;;;11.70;99.90;;;;;;5113524;27;20035;-79
2022/05/13 01:00:05;;;;;;;5.32;1.77;;;11.70;99.90;;;;;;5112497;27;20134;-79
2022/05/13 01:02:32;;;;;;;7.57;2.10;;;11.70;99.90;;;;;;5110979;27;20040;-79
2022/05/13 01:04:59;;;;;;;7.15;2.20;;;11.70;99.90;;;;;;5112270;27;20043;-79
2022/05/13 01:07:25;;;;;;;6.50;2.08;;;12.00;99.90;;;;;;5111659;27;20118;-79
2022/05/13 01:09:57;;;;;;;8.68;2.70;;;11.70;99.90;;;;;;5095019;27;20122;-79
2022/05/13 01:12:37;;;;;;;5.88;2.00;;;11.70;99.90;;;;;;5096101;27;20035;-79
2022/05/13 01:15:10;;;;;;;11.10;2.30;;;11.70;99.90;;;;;;5095912;27;20059;-79
2022/05/13 01:20:29;;;;;;;8.57;2.45;;;11.70;99.90;;;;;;5112345;27;20043;-79
2022/05/13 01:22:58;;;;;;;6.20;2.42;;;11.70;99.90;;;;;;5093276;27;20042;-79
2022/05/13 01:25:27;;;;;;;7.45;2.45;;;11.60;99.90;;;;;;5112356;27;20518;-79
2022/05/13 01:27:56;;;;;;;5.95;2.13;;;11.60;99.90;;;;;;5113024;27;20415;-79
2022/05/13 01:30:25;;;;;;;8.18;2.40;;;11.60;99.90;;;;;;5110582;28;20035;-79
2022/05/13 01:32:51;;;;;;;6.53;2.00;;;11.60;99.90;;;;;;5093746;27;20035;-79
2022/05/13 01:35:17;;;;;;;7.13;1.88;;;11.40;99.90;;;;;;5068327;27;20095;-79
2022/05/13 01:37:43;;;;;;;5.97;2.20;;;11.50;99.90;;;;;;5112186;27;20043;-79
2022/05/13 01:40:10;;;;;;;5.82;2.60;;;11.50;99.90;;;;;;5061402;27;20047;-79
2022/05/13 01:42:35;;;;;;;7.15;2.40;;;11.50;99.90;;;;;;5112318;27;20043;-79
2022/05/13 01:45:02;;;;;;;5.53;2.10;;;11.50;99.90;;;;;;5110379;27;20043;-80
2022/05/13 01:47:29;;;;;;;6.43;2.30;;;11.50;99.90;;;;;;5111936;27;20031;-79
2022/05/13 01:49:55;;;;;;;5.68;2.20;;;11.50;99.90;;;;;;5110483;27;20081;-79
2022/05/13 01:52:21;;;;;;;6.38;2.20;;;11.40;99.90;;;;;;5093977;27;20038;-79
2022/05/13 01:54:47;;;;;;;5.72;2.90;;;11.50;99.90;;;;;;5094234;27;20114;-78
2022/05/13 01:57:13;;;;;;;5.32;2.10;;;11.50;99.90;;;;;;5067005;27;20141;-79
2022/05/13 01:59:39;;;;;;;7.32;2.47;;;11.50;99.90;;;;;;5110670;27;20031;-79
2022/05/13 02:02:05;;;;;;;5.40;2.60;;;11.50;99.90;;;;;;5112036;27;20175;-79
2022/05/13 02:04:31;;;;;;;7.57;2.30;;;11.70;99.90;;;;;;5070523;27;20054;-79
2022/05/13 02:06:57;;;;;;;6.35;2.60;;;12.10;99.90;;;;;;5093242;27;20039;-79
2022/05/13 02:09:23;;;;;;;9.68;2.45;;;11.50;99.90;;;;;;5094571;27;20386;-79
2022/05/13 02:11:49;;;;;;;5.43;2.42;;;11.60;99.90;;;;;;5111779;27;20122;-79
2022/05/13 02:14:16;;;;;;;9.55;3.45;;;11.40;99.90;;;;;;5107817;27;20128;-79
2022/05/13 02:16:42;;;;;;;8.60;2.47;;;11.70;99.90;;;;;;5107182;27;20046;-79
2022/05/13 02:19:08;;;;;;;6.85;2.50;;;11.40;99.90;;;;;;5094402;27;20039;-79
2022/05/13 02:21:35;;;;;;;7.80;2.50;;;11.70;99.90;;;;;;5098219;27;20039;-79
2022/05/13 02:24:01;;;;;;;8.40;3.17;;;11.50;99.90;;;;;;5096323;27;20418;-79
2022/05/13 02:26:27;;;;;;;7.93;2.72;;;11.50;99.90;;;;;;5112494;27;20055;-77
2022/05/13 02:28:52;;;;;;;8.27;2.65;;;11.40;99.90;;;;;;5088930;27;20106;-79
2022/05/13 02:31:18;;;;;;;11.18;2.78;;;11.40;99.90;;;;;;5104192;27;20039;-80
2022/05/13 02:33:44;;;;;;;5.00;2.45;;;11.40;99.90;;;;;;5102952;27;20039;-79
2022/05/13 02:36:11;;;;;;;12.05;2.83;;;11.50;99.90;;;;;;5111373;27;20038;-79
2022/05/13 02:38:36;;;;;;;7.05;2.58;;;11.40;99.90;;;;;;5112408;27;20077;-78
2022/05/13 02:41:11;;;;;;;6.00;2.42;;;11.40;99.90;;;;;;5112085;27;20066;-79
2022/05/13 02:43:39;;;;;;;5.18;2.30;;;11.40;99.90;;;;;;5079253;27;20103;-79
2022/05/13 02:46:04;;;;;;;7.63;2.50;;;11.30;99.90;;;;;;5094478;27;20112;-79
2022/05/13 02:48:30;;;;;;;8.65;2.75;;;11.30;99.90;;;;;;5075797;27;20511;-79
2022/05/13 02:50:56;;;;;;;7.38;2.70;;;11.30;99.90;;;;;;5112393;27;20123;-79
2022/05/13 02:53:23;;;;;;;7.90;2.60;;;11.40;99.90;;;;;;5078529;27;20205;-79
2022/05/13 02:55:49;;;;;;;10.93;2.65;;;12.20;99.90;;;;;;5093336;27;20050;-79
2022/05/13 02:58:15;;;;;;;6.63;2.45;;;11.30;99.90;;;;;;5111795;27;20035;-80
2022/05/13 03:00:41;;;;;;;9.10;2.88;;;11.30;99.90;;;;;;5111280;28;20486;-79
2022/05/13 03:03:07;;;;;;;6.55;2.42;;;11.60;99.90;;;;;;5112000;28;20038;-79
2022/05/13 03:05:33;;;;;;;10.25;2.97;;;11.30;99.90;;;;;;5076628;28;20047;-79
2022/05/13 03:08:01;;;;;;;7.75;2.72;;;11.30;99.90;;;;;;5110976;28;20043;-79
2022/05/13 03:10:31;;;;;;;10.65;2.63;;;11.30;99.90;;;;;;5094469;27;20161;-79
2022/05/13 03:12:57;;;;;;;11.73;2.88;;;11.20;99.90;;;;;;5094263;28;20190;-79
2022/05/13 03:15:24;;;;;;;11.18;2.97;;;11.30;99.90;;;;;;5093121;28;20051;-79
2022/05/13 03:17:50;;;;;;;6.60;2.40;;;11.30;99.90;;;;;;5061419;28;20119;-79
2022/05/13 03:20:18;;;;;;;9.38;2.75;;;11.30;99.90;;;;;;5110034;28;21276;-79
2022/05/13 03:22:44;;;;;;;10.68;2.60;;;11.30;99.90;;;;;;5092604;28;20075;-79
2022/05/13 03:25:10;;;;;;;10.48;2.92;;;11.30;99.90;;;;;;5109621;28;20043;-79
2022/05/13 03:27:36;;;;;;;10.77;3.08;;;11.30;99.90;;;;;;5094478;28;20047;-79
2022/05/13 03:30:04;;;;;;;9.98;2.92;;;11.30;99.90;;;;;;5060790;28;20061;-79
2022/05/13 03:32:29;;;;;;;8.20;2.40;;;11.40;99.90;;;;;;5077006;28;20035;-79
2022/05/13 03:34:55;;;;;;;10.40;2.58;;;11.50;99.90;;;;;;5092448;28;20031;-79
2022/05/13 03:37:21;;;;;;;10.85;2.80;;;11.40;99.90;;;;;;5076588;28;20077;-80
2022/05/13 03:39:47;;;;;;;10.90;2.90;;;11.40;99.90;;;;;;5093951;28;20031;-79
2022/05/13 03:42:12;;;;;;;11.32;3.40;;;11.30;99.90;;;;;;5069645;28;20503;-79
2022/05/13 03:44:38;;;;;;;10.50;2.90;;;11.40;99.90;;;;;;5075949;28;20035;-79
2022/05/13 03:47:04;;;;;;;11.23;3.03;;;11.40;99.90;;;;;;5094349;28;20062;-79
2022/05/13 03:49:30;;;;;;;12.95;3.63;;;11.40;99.90;;;;;;5072242;28;20038;-79
2022/05/13 03:51:56;;;;;;;11.07;3.58;;;11.30;99.90;;;;;;5111199;28;20043;-79
2022/05/13 03:54:22;;;;;;;10.82;2.88;;;11.40;99.90;;;;;;5072698;27;20456;-79
2022/05/13 03:56:48;;;;;;;8.27;2.40;;;11.40;99.90;;;;;;5087160;27;20035;-79
2022/05/13 03:59:14;;;;;;;11.07;3.10;;;11.30;99.90;;;;;;5097564;27;20075;-79
2022/05/13 04:01:40;;;;;;;8.40;2.92;;;11.30;99.90;;;;;;5098533;27;20091;-79
2022/05/13 04:04:05;;;;;;;10.73;3.00;;;11.30;99.90;;;;;;5097960;27;20387;-79
2022/05/13 04:09:15;;;;;;;9.70;3.08;;;11.30;99.90;;;;;;5101837;27;20107;-79
2022/05/13 04:16:04;;;;;;;8.93;3.05;;;11.30;99.90;;;;;;5064486;27;20039;-80
2022/05/13 04:17:12;;;;;;;11.80;3.20;;;11.40;99.90;;;;;;5114598;27;20013;-79
2022/05/13 04:19:38;;;;;;;11.52;3.38;;;11.20;99.90;;;;;;5070462;27;20423;-79
2022/05/13 04:22:04;;;;;;;13.80;3.97;;;11.30;99.90;;;;;;5112969;27;20538;-79
2022/05/13 04:24:29;;;;;;;11.85;4.03;;;11.30;99.90;;;;;;5079212;27;20027;-79
2022/05/13 04:26:55;;;;;;;12.57;3.30;;;11.30;99.90;;;;;;5096567;27;20047;-79
2022/05/13 04:29:21;;;;;;;13.40;3.30;;;11.60;99.90;;;;;;5075023;27;20043;-79
2022/05/13 04:31:46;;;;;;;14.48;3.45;;;11.30;99.90;;;;;;5079254;27;20485;-79
2022/05/13 04:34:13;;;;;;;14.65;3.80;;;11.30;99.90;;;;;;5079255;27;20043;-79
2022/05/13 04:36:39;;;;;;;12.18;3.80;;;11.30;99.90;;;;;;5097065;27;20428;-79
2022/05/13 04:39:05;;;;;;;16.13;3.65;;;11.30;99.90;;;;;;5078006;27;20039;-79
2022/05/13 04:44:17;;;;;;;14.45;3.67;;;11.40;99.90;;;;;;5114157;27;20050;-79
2022/05/13 04:46:43;;;;;;;15.57;3.88;;;11.40;99.90;;;;;;5097134;27;20368;-79
2022/05/13 04:49:09;;;;;;;16.95;3.70;;;11.60;99.90;;;;;;5096171;27;20958;-78
2022/05/13 04:51:35;;;;;;;13.05;3.63;;;11.40;99.90;;;;;;5096352;27;20050;-79
2022/05/13 04:54:01;;;;;;;14.52;3.58;;;11.60;99.90;;;;;;5097373;27;20062;-79
2022/05/13 04:56:29;;;;;;;15.65;4.65;;;11.50;99.90;;;;;;5079109;27;20111;-79
2022/05/13 04:58:55;;;;;;;12.63;4.25;;;11.50;99.90;;;;;;5079934;27;20035;-80
2022/05/13 05:01:22;;;;;;;12.57;4.05;;;11.50;99.90;;;;;;5094748;27;20378;-80
2022/05/13 05:03:49;;;;;;;15.68;4.15;;;11.50;99.90;;;;;;5113250;27;20058;-79
2022/05/13 05:06:16;;;;;;;12.43;3.90;;;11.50;99.90;;;;;;5113647;27;20031;-80
2022/05/13 05:08:43;;;;;;;15.23;4.22;;;11.90;99.90;;;;;;5129930;27;20073;-79
2022/05/13 05:11:11;;;;;;;13.02;3.92;;;11.60;99.90;;;;;;5065454;27;20121;-80
2022/05/13 05:13:46;;;;;;;14.77;4.32;;;11.70;99.90;;;;;;5094726;27;20095;-79
2022/05/13 05:16:15;;;;;;;16.25;4.10;;;11.70;99.90;;;;;;5110382;27;20080;-79
2022/05/13 05:18:41;;;;;;;15.93;4.25;;;11.70;99.90;;;;;;5080005;27;20379;-80
2022/05/13 05:21:09;;;;;;;19.40;4.72;;;11.70;99.90;;;;;;5091301;27;22372;-79
2022/05/13 05:23:38;;;;;;;12.25;4.20;;;11.80;99.90;;;;;;5096615;27;20039;-79
2022/05/13 05:26:05;;;;;;;16.25;4.30;;;11.80;99.90;;;;;;5112773;27;20043;-79
2022/05/13 05:28:32;;;;;;;17.98;4.40;;;11.90;99.90;;;;;;5070840;27;20051;-78
2022/05/13 05:31:01;;;;;;;17.17;4.78;;;11.90;99.90;;;;;;5095278;27;20035;-79
2022/05/13 05:33:27;;;;;;;12.85;4.07;;;12.00;99.90;;;;;;5096267;27;20387;-79
2022/05/13 05:35:53;;;;;;;17.63;4.63;;;12.10;99.90;;;;;;5111292;27;20035;-80
2022/05/13 05:38:19;;;;;;;14.30;4.53;;;12.10;99.90;;;;;;5092137;27;20042;-78
2022/05/13 05:40:44;;;;;;;14.70;4.55;;;12.20;99.90;;;;;;5109112;27;20122;-78
2022/05/13 05:43:13;;;;;;;11.55;4.07;;;12.30;99.90;;;;;;5094728;27;20805;-78
2022/05/13 05:45:40;;;;;;;16.27;4.55;;;12.40;99.90;;;;;;5094286;27;20383;-78
2022/05/13 05:48:08;;;;;;;14.98;4.28;;;12.50;99.90;;;;;;5095301;27;20542;-78
2022/05/13 05:50:35;;;;;;;15.60;4.07;;;12.60;99.90;;;;;;5094381;27;20042;-78
2022/05/13 05:53:01;;;;;;;14.80;4.25;;;12.70;99.90;;;;;;5094814;27;20862;-78
2022/05/13 05:58:14;;;;;;;15.50;4.25;;;12.80;99.90;;;;;;5096985;27;20405;-78
2022/05/13 06:00:45;;;;;;;13.30;3.90;;;12.80;99.90;;;;;;5094089;27;20050;-78
2022/05/13 06:03:10;;;;;;;12.48;3.55;;;12.80;99.90;;;;;;5108228;27;20028;-79
2022/05/13 06:05:36;;;;;;;12.52;3.65;;;13.40;99.90;;;;;;5093385;27;20128;-78
2022/05/13 06:08:03;;;;;;;12.55;3.38;;;13.00;99.90;;;;;;5110484;27;20130;-79
2022/05/13 06:10:31;;;;;;;11.38;3.60;;;13.10;99.90;;;;;;5093961;27;20035;-80
2022/05/13 06:12:57;;;;;;;10.23;3.53;;;13.20;99.90;;;;;;5093909;27;20031;-79
2022/05/13 06:15:24;;;;;;;11.43;3.80;;;13.30;99.90;;;;;;5110357;27;20498;-79
2022/05/13 06:17:52;;;;;;;13.85;3.58;;;13.30;99.90;;;;;;5093038;27;20131;-79
2022/05/13 06:20:21;;;;;;;9.13;2.70;;;13.40;99.90;;;;;;5109915;27;20039;-79
2022/05/13 06:22:47;;;;;;;9.40;2.47;;;13.50;99.90;;;;;;5110306;27;20046;-79
2022/05/13 06:25:14;;;;;;;11.55;2.45;;;13.50;99.90;;;;;;5093036;27;20073;-78
2022/05/13 06:27:41;;;;;;;9.55;2.25;;;13.60;99.90;;;;;;5092419;27;20104;-78
2022/05/13 06:30:09;;;;;;;10.05;2.63;;;13.70;99.90;;;;;;5092997;27;20054;-79
2022/05/13 06:32:35;;;;;;;7.90;2.08;;;13.70;99.90;;;;;;5068333;27;20046;-78
2022/05/13 06:35:01;;;;;;;31.15;2.95;;;13.70;99.90;;;;;;5094446;27;20035;-80
2022/05/13 06:37:27;;;;;;;5.68;2.17;;;13.80;99.90;;;;;;5094382;27;20067;-78
2022/05/13 06:39:53;;;;;;;11.77;2.38;;;13.70;99.90;;;;;;5111485;27;20039;-80
2022/05/13 06:42:18;;;;;;;12.73;2.55;;;13.70;99.90;;;;;;5070669;27;20047;-80
2022/05/13 06:44:44;;;;;;;17.85;3.13;;;13.70;99.90;;;;;;5093434;27;20030;-80
2022/05/13 06:47:10;;;;;;;6.60;2.10;;;13.80;99.90;;;;;;5109851;27;20087;-79
2022/05/13 06:49:36;;;;;;;7.97;1.98;;;13.80;99.90;;;;;;5071376;27;20176;-80
2022/05/13 06:52:03;;;;;;;10.57;2.45;;;13.90;99.90;;;;;;5095557;27;20490;-80
2022/05/13 06:54:29;;;;;;;13.60;2.03;;;14.00;99.90;;;;;;5082140;27;20042;-80
2022/05/13 06:56:55;;;;;;;12.05;2.05;;;14.10;99.90;;;;;;5076305;27;20043;-80
2022/05/13 06:59:22;;;;;;;10.65;2.20;;;14.10;99.90;;;;;;5110439;27;20050;-80
2022/05/13 07:01:48;;;;;;;13.30;2.83;;;14.10;99.90;;;;;;5095550;28;20039;-79
2022/05/13 07:04:14;;;;;;;12.70;1.80;;;14.10;99.90;;;;;;5094086;27;20138;-80
2022/05/13 07:06:40;;;;;;;13.45;2.40;;;14.10;99.90;;;;;;5094605;27;20131;-80
2022/05/13 07:09:06;;;;;;;10.57;2.10;;;14.20;99.90;;;;;;5075285;28;20043;-79
2022/05/13 07:11:32;;;;;;;14.32;2.42;;;14.20;99.90;;;;;;5094974;27;20498;-80
2022/05/13 07:13:58;;;;;;;8.35;1.75;;;14.40;99.90;;;;;;5090658;27;20113;-81
2022/05/13 07:16:23;;;;;;;8.25;1.67;;;14.70;99.90;;;;;;5089584;28;20041;-79
2022/05/13 07:18:49;;;;;;;6.60;2.03;;;15.20;99.90;;;;;;5075623;28;20074;-79
2022/05/13 07:21:15;;;;;;;6.72;2.05;;;15.60;99.90;;;;;;5080043;28;20127;-81
2022/05/13 07:23:42;;;;;;;6.10;1.58;;;16.10;99.90;;;;;;5095658;28;20043;-80
2022/05/13 07:26:08;;;;;;;11.35;1.83;;;16.40;99.90;;;;;;5096790;28;20050;-79
2022/05/13 07:28:35;;;;;;;7.63;1.98;;;16.50;99.90;;;;;;5103229;28;20182;-81
2022/05/13 07:31:01;;;;;;;6.55;1.60;;;16.40;99.90;;;;;;5107980;27;20046;-80
2022/05/13 07:33:29;;;;;;;7.75;1.90;;;16.40;99.90;;;;;;5102652;28;20151;-81
2022/05/13 07:35:55;;;;;;;7.97;1.65;;;16.30;99.90;;;;;;5096370;28;20051;-80
2022/05/13 07:38:21;;;;;;;8.63;1.70;;;16.20;99.90;;;;;;5110533;28;20176;-81
2022/05/13 07:43:30;;;;;;;3.88;1.20;;;16.40;99.90;;;;;;5079474;28;20044;-81
2022/05/13 07:45:56;;;;;;;6.50;2.58;;;16.70;99.90;;;;;;5110387;28;20032;-81
2022/05/13 07:48:22;;;;;;;9.07;1.73;;;16.70;99.90;;;;;;5109010;28;20039;-81
2022/05/13 07:50:48;;;;;;;10.75;1.60;;;16.60;99.90;;;;;;5111213;28;20043;-81
2022/05/13 07:53:13;;;;;;;9.18;1.60;;;16.40;99.90;;;;;;5096129;28;20043;-81
2022/05/13 07:55:39;;;;;;;7.20;1.60;;;16.20;99.90;;;;;;5092996;28;20043;-80
2022/05/13 07:58:05;;;;;;;6.22;1.80;;;16.10;99.90;;;;;;5111791;28;20576;-81
2022/05/13 08:00:36;;;;;;;8.75;1.40;;;16.00;99.90;;;;;;5077868;28;20415;-78
2022/05/13 08:03:11;;;;;;;6.13;1.52;;;16.10;99.90;;;;;;5110686;28;20039;-78
2022/05/13 08:05:50;;;;;;;9.77;1.60;;;16.20;99.90;;;;;;5111276;28;20039;-81
2022/05/13 08:08:26;;;;;;;7.55;1.30;;;16.30;99.90;;;;;;5092073;28;20035;-80
2022/05/13 08:10:54;;;;;;;7.70;1.50;;;16.30;99.90;;;;;;5111832;28;20043;-81
2022/05/13 08:13:21;;;;;;;7.28;1.60;;;16.20;99.90;;;;;;5095757;28;20039;-79
2022/05/13 08:15:48;;;;;;;8.02;1.40;;;16.20;99.90;;;;;;5092478;28;20035;-80
2022/05/13 08:18:15;;;;;;;7.35;1.60;;;16.10;99.90;;;;;;5110762;28;20044;-80
2022/05/13 08:20:42;;;;;;;37.17;2.97;;;16.20;99.90;;;;;;5091604;28;20163;-79
2022/05/13 08:23:08;;;;;;;11.30;1.67;;;16.40;99.90;;;;;;5092681;28;20105;-80
2022/05/13 08:25:34;;;;;;;9.55;1.70;;;16.50;99.90;;;;;;5091542;28;20067;-80
2022/05/13 08:28:00;;;;;;;4.70;1.88;;;16.60;99.90;;;;;;5094028;28;20139;-80
2022/05/13 08:30:26;;;;;;;7.60;1.40;;;16.50;99.90;;;;;;5094402;28;20115;-79
2022/05/13 08:32:52;;;;;;;7.28;1.60;;;16.50;99.90;;;;;;5092978;28;20028;-79
2022/05/13 08:35:19;;;;;;;4.82;1.60;;;16.40;99.90;;;;;;5110219;28;20088;-81
2022/05/13 08:37:49;;;;;;;9.20;1.70;;;16.30;99.90;;;;;;5093869;28;20036;-82
2022/05/13 08:40:45;;;;;;;7.35;1.60;;;16.30;99.90;;;;;;5110802;28;20543;-79
2022/05/13 08:43:15;;;;;;;7.72;1.70;;;16.20;99.90;;;;;;5111580;28;20044;-79
2022/05/13 08:45:49;;;;;;;8.43;1.70;;;16.20;99.90;;;;;;5107570;28;20471;-80
2022/05/13 08:48:20;;;;;;;10.88;1.98;;;16.20;99.90;;;;;;5093967;28;20429;-80
2022/05/13 08:50:57;;;;;;;11.45;1.58;;;16.10;99.90;;;;;;5109606;28;20360;-80
2022/05/13 08:53:47;;;;;;;7.28;1.75;;;16.10;99.90;;;;;;5093613;28;20048;-78
2022/05/13 08:56:21;;;;;;;10.55;1.50;;;16.30;99.90;;;;;;5108339;28;20046;-80
2022/05/13 08:59:12;;;;;;;9.32;1.85;;;16.50;99.90;;;;;;5109636;28;20118;-79
2022/05/13 09:01:44;;;;;;;12.75;2.08;;;16.60;99.90;;;;;;5093001;28;20043;-79
2022/05/13 09:04:22;;;;;;;12.43;2.03;;;16.80;99.90;;;;;;5104383;28;20032;-79
2022/05/13 09:07:01;;;;;;;8.60;1.45;;;16.90;99.90;;;;;;5109424;28;20611;-78
2022/05/13 09:09:28;;;;;;;18.88;1.90;;;17.10;99.90;;;;;;5110178;28;20036;-80
2022/05/13 09:12:28;;;;;;;8.82;2.08;;;17.10;99.90;;;;;;5091605;28;20074;-77
2022/05/13 09:15:03;;;;;;;7.70;1.55;;;17.00;99.90;;;;;;5094007;28;20043;-78
2022/05/13 09:17:36;;;;;;;6.22;1.70;;;17.10;99.90;;;;;;5110348;28;20402;-82
2022/05/13 09:20:11;;;;;;;9.15;1.90;;;17.10;99.90;;;;;;5108752;28;20062;-81
2022/05/13 09:22:36;;;;;;;11.80;1.95;;;17.00;99.90;;;;;;5091887;28;20035;-82
2022/05/13 09:25:03;;;;;;;9.57;2.33;;;16.80;99.90;;;;;;5094518;28;20031;-81
2022/05/13 09:27:29;;;;;;;7.47;1.67;;;16.80;99.90;;;;;;5110001;28;20085;-82
2022/05/13 09:29:54;;;;;;;10.35;1.52;;;16.80;99.90;;;;;;5110465;28;20036;-82
2022/05/13 09:32:29;;;;;;;8.38;1.55;;;16.80;99.90;;;;;;5092855;28;20031;-80
2022/05/13 09:35:08;;;;;;;8.20;1.60;;;16.80;99.90;;;;;;5091246;28;20047;-81
2022/05/13 09:37:41;;;;;;;8.40;1.65;;;16.70;99.90;;;;;;5090074;28;20082;-81
2022/05/13 09:40:15;;;;;;;14.98;1.98;;;16.70;99.90;;;;;;5094602;28;20105;-81
2022/05/13 09:42:47;;;;;;;16.15;2.20;;;16.70;99.90;;;;;;5107444;28;20108;-81
2022/05/13 09:45:28;;;;;;;11.10;2.10;;;16.70;99.90;;;;;;5092357;28;20035;-82
2022/05/13 09:48:09;;;;;;;5.40;1.67;;;16.80;99.90;;;;;;5092189;28;20483;-81
2022/05/13 09:50:42;;;;;;;12.07;1.70;;;16.80;99.90;;;;;;5091853;28;20035;-81
2022/05/13 09:53:26;;;;;;;5.72;1.63;;;16.80;99.90;;;;;;5090085;28;20048;-77
2022/05/13 09:55:54;;;;;;;7.05;1.52;;;16.80;99.90;;;;;;5109719;28;20395;-77
2022/05/13 09:58:33;;;;;;;9.90;1.95;;;16.80;99.90;;;;;;5107199;28;20060;-81
2022/05/13 10:01:09;;;;;;;5.82;1.75;;;17.10;99.90;;;;;;5108810;28;20049;-79
2022/05/13 10:03:37;;;;;;;12.68;1.85;;;17.20;99.90;;;;;;5090253;28;20055;-79
2022/05/13 10:06:08;;;;;;;14.43;1.80;;;17.30;99.90;;;;;;5089970;28;20035;-82
2022/05/13 10:08:57;;;;;;;10.82;1.88;;;17.30;99.90;;;;;;5092234;28;21389;-80
2022/05/13 10:14:32;;;;;;;14.23;2.20;;;17.20;99.90;;;;;;5113285;28;20078;-80
2022/05/13 10:17:24;;;;;;;8.43;2.33;;;17.10;99.90;;;;;;5106032;28;20066;-78
2022/05/13 10:19:54;;;;;;;14.30;2.45;;;17.00;99.70;;;;;;5108310;28;20050;-79
2022/05/13 10:22:31;;;;;;;44.90;3.13;;;16.90;99.90;;;;;;5105929;28;20055;-80
2022/05/13 10:25:21;;;;;;;7.57;1.70;;;16.90;99.90;;;;;;5090009;28;20422;-79
2022/05/13 10:27:59;;;;;;;8.10;2.38;;;17.00;99.90;;;;;;5089979;28;20043;-79
2022/05/13 10:31:16;;;;;;;7.43;1.80;;;17.00;99.90;;;;;;5090144;28;20031;-80
2022/05/13 10:34:14;;;;;;;8.73;1.67;;;17.00;99.90;;;;;;5061171;28;20046;-80
2022/05/13 10:36:44;;;;;;;12.88;2.15;;;16.90;99.90;;;;;;5108543;28;20046;-79
2022/05/13 10:39:20;;;;;;;8.15;1.88;;;17.00;99.90;;;;;;5089668;28;20301;-82
2022/05/13 10:41:50;;;;;;;19.33;2.00;;;17.00;99.90;;;;;;5106513;28;20058;-81
2022/05/13 10:44:23;;;;;;;7.85;1.60;;;17.10;99.90;;;;;;5106960;28;20073;-81
2022/05/13 10:47:01;;;;;;;9.25;1.45;;;17.00;99.90;;;;;;5090107;28;20380;-81
2022/05/13 10:49:34;;;;;;;14.00;2.03;;;17.10;99.80;;;;;;5107094;28;20521;-80
2022/05/13 10:52:13;;;;;;;9.25;2.55;;;17.10;99.90;;;;;;5088636;28;20047;-81
2022/05/13 10:54:48;;;;;;;5.78;1.55;;;17.00;99.90;;;;;;5108048;28;20063;-81
2022/05/13 10:57:38;;;;;;;3.92;1.63;;;17.10;99.90;;;;;;5107786;28;20123;-80
2022/05/13 11:00:36;;;;;;;10.45;1.77;;;17.20;99.90;;;;;;5109647;28;20051;-81
2022/05/13 11:03:02;;;;;;;18.48;2.20;;;17.20;99.90;;;;;;5088824;28;20081;-83
2022/05/13 11:05:47;;;;;;;11.35;2.40;;;17.10;99.90;;;;;;5091476;28;20027;-82
2022/05/13 11:08:19;;;;;;;6.63;2.15;;;17.00;99.40;;;;;;5108958;28;20071;-82
2022/05/13 11:10:52;;;;;;;5.95;1.70;;;16.80;99.90;;;;;;5108958;28;20036;-81
2022/05/13 11:13:50;;;;;;;6.88;2.13;;;16.80;99.90;;;;;;5109324;28;20039;-80
2022/05/13 11:16:23;;;;;;;8.50;2.30;;;16.90;99.90;;;;;;5091033;28;20479;-80
2022/05/13 11:19:10;;;;;;;12.68;2.92;;;17.10;99.90;;;;;;5090808;28;20087;-81
2022/05/13 11:21:42;;;;;;;11.13;2.30;;;17.20;99.90;;;;;;5107681;28;20054;-80
2022/05/13 11:27:36;;;;;;;46.45;4.40;;;17.30;99.90;;;;;;5110771;28;20059;-80
2022/05/13 11:30:21;;;;;;;11.73;1.90;;;17.40;99.10;;;;;;5111567;28;20352;-80
2022/05/13 11:33:01;;;;;;;29.80;3.00;;;17.40;99.10;;;;;;5111296;28;20047;-81
2022/05/13 11:35:36;;;;;;;13.80;2.70;;;17.50;99.40;;;;;;5110969;28;20131;-80
2022/05/13 11:38:53;;;;;;;17.42;3.20;;;17.50;99.40;;;;;;5113163;28;20095;-79
2022/05/13 11:41:23;;;;;;;8.30;2.20;;;17.60;99.40;;;;;;5058809;28;20143;-80
2022/05/13 11:44:05;;;;;;;19.52;2.42;;;17.60;99.00;;;;;;5094398;28;20700;-78
2022/05/13 11:46:50;;;;;;;7.07;1.98;;;17.70;98.70;;;;;;5095986;28;20051;-80
2022/05/13 11:49:37;;;;;;;7.93;1.73;;;17.60;97.30;;;;;;5111812;28;20034;-78
2022/05/13 11:52:46;;;;;;;7.55;1.98;;;17.50;98.20;;;;;;5110159;28;20046;-80
2022/05/13 11:55:17;;;;;;;10.48;2.53;;;17.50;98.40;;;;;;5095992;28;20039;-78
2022/05/13 11:57:52;;;;;;;5.72;2.03;;;17.40;98.30;;;;;;5095537;28;20079;-77
2022/05/13 12:00:33;;;;;;;22.63;2.67;;;17.30;98.40;;;;;;5095891;28;20114;-79
2022/05/13 12:03:08;;;;;;;15.95;2.10;;;17.40;98.60;;;;;;5094771;28;20075;-79
2022/05/13 12:06:01;;;;;;;14.40;2.70;;;17.50;98.40;;;;;;5094691;28;20027;-79
2022/05/13 12:08:49;;;;;;;9.00;1.70;;;17.70;98.20;;;;;;5090729;28;20042;-78
2022/05/13 12:11:44;;;;;;;6.30;1.88;;;17.80;97.10;;;;;;5091004;28;20479;-79
2022/05/13 12:14:23;;;;;;;14.73;2.27;;;17.80;97.50;;;;;;5092224;28;20053;-78
2022/05/13 12:17:08;;;;;;;9.05;1.58;;;17.90;96.50;;;;;;5113367;27;20049;-79
2022/05/13 12:19:48;;;;;;;6.38;1.60;;;17.90;96.00;;;;;;5099321;27;20105;-79
2022/05/13 12:22:41;;;;;;;4.82;1.80;;;18.00;96.20;;;;;;5117008;27;20199;-78
2022/05/13 12:25:32;;;;;;;9.65;2.25;;;18.30;95.10;;;;;;5120259;27;20019;-81
2022/05/13 12:28:11;;;;;;;14.60;1.70;;;18.50;95.50;;;;;;5120568;27;20038;-80
2022/05/13 12:30:46;;;;;;;6.50;1.77;;;18.60;93.00;;;;;;5118252;27;20131;-79
2022/05/13 12:33:23;;;;;;;8.27;2.03;;;18.80;93.00;;;;;;5112549;27;20127;-81
2022/05/13 12:39:00;;;;;;;;;;;19.00;92.40;;;;;;5112908;27;20054;-79
2022/05/13 12:41:44;;;;;;;10.32;1.73;;;18.90;90.70;;;;;;5112173;27;20351;-79
2022/05/13 12:44:31;;;;;;;11.57;1.73;;;18.90;90.30;;;;;;5112704;27;20043;-81
2022/05/13 12:47:15;;;;;;;4.47;1.45;;;19.00;91.00;;;;;;5111303;27;20043;-81
2022/05/13 12:50:02;;;;;;;4.10;1.63;;;19.30;89.50;;;;;;5096027;27;20050;-81
2022/05/13 12:52:27;;;;;;;9.27;1.55;;;19.30;89.40;;;;;;5113425;27;20047;-80
2022/05/13 12:54:59;;;;;;;18.23;2.00;;;19.20;89.90;;;;;;5095360;27;20045;-81
2022/05/13 12:57:32;;;;;;;41.55;2.95;;;19.20;88.30;;;;;;5112612;27;21471;-81
2022/05/13 12:59:58;;;;;;;5.57;1.52;;;19.40;88.10;;;;;;5095599;27;20042;-81
2022/05/13 13:02:29;;;;;;;7.32;1.40;;;19.40;87.80;;;;;;5095524;27;20035;-81
2022/05/13 13:05:02;;;;;;;8.30;2.08;;;19.50;87.10;;;;;;5110946;27;20066;-79
2022/05/13 13:07:32;;;;;;;9.02;1.85;;;19.60;86.40;;;;;;5096153;27;20043;-79
2022/05/13 13:09:59;;;;;;;11.65;1.60;;;19.60;86.20;;;;;;5097722;27;20160;-80
2022/05/13 13:12:37;;;;;;;5.03;1.83;;;19.70;87.30;;;;;;5112304;27;20054;-80
2022/05/13 13:15:13;;;;;;;7.28;1.73;;;19.70;85.40;;;;;;5112353;27;20479;-81
2022/05/13 13:17:56;;;;;;;43.13;3.13;;;19.80;85.70;;;;;;5094974;27;20069;-79
2022/05/13 13:20:24;;;;;;;11.85;1.70;;;20.00;83.30;;;;;;5094045;27;20034;-79
2022/05/13 13:23:17;;;;;;;11.52;2.25;;;20.10;84.10;;;;;;5112947;27;20031;-79
2022/05/13 13:25:45;;;;;;;14.68;2.35;;;20.20;80.00;;;;;;5083856;27;20043;-80
2022/05/13 13:28:22;;;;;;;21.90;3.33;;;20.30;83.10;;;;;;5096367;27;20087;-79